sensor_id;sensor_type;location;lat;lon;timestamp;P1;durP1;ratioP1;P2;durP2;ratioP2
58928;SDS011;44713;53.378;10.022;2022-09-02T00:00:54;1.00;;;0.63;;
58928;SDS011;44713;53.378;10.022;2022-09-02T00:03:24;3.13;;;0.60;;
58928;SDS011;44713;53.378;10.022;2022-09-02T00:05:58;1.45;;;0.60;;
58928;SDS011;44713;53.378;10.022;2022-09-02T00:08:24;0.73;;;0.50;;
58928;SDS011;44713;53.378;10.022;2022-09-02T00:10:49;3.03;;;0.57;;
58928;SDS011;44713;53.378;10.022;2022-09-02T00:13:15;1.52;;;0.70;;
58928;SDS011;44713;53.378;10.022;2022-09-02T00:15:44;3.38;;;0.80;;
58928;SDS011;44713;53.378;10.022;2022-09-02T00:18:10;1.00;;;0.60;;
58928;SDS011;44713;53.378;10.022;2022-09-02T00:20:37;1.38;;;0.50;;
58928;SDS011;44713;53.378;10.022;2022-09-02T00:23:03;1.38;;;0.70;;
58928;SDS011;44713;53.378;10.022;2022-09-02T00:25:30;1.60;;;0.50;;
58928;SDS011;44713;53.378;10.022;2022-09-02T00:27:55;0.80;;;0.52;;
58928;SDS011;44713;53.378;10.022;2022-09-02T00:30:21;0.80;;;0.52;;
58928;SDS011;44713;53.378;10.022;2022-09-02T00:32:47;0.80;;;0.57;;
58928;SDS011;44713;53.378;10.022;2022-09-02T00:35:12;1.52;;;0.68;;
58928;SDS011;44713;53.378;10.022;2022-09-02T00:37:37;0.90;;;0.55;;
58928;SDS011;44713;53.378;10.022;2022-09-02T00:40:04;0.75;;;0.47;;
58928;SDS011;44713;53.378;10.022;2022-09-02T00:42:31;1.20;;;0.43;;
58928;SDS011;44713;53.378;10.022;2022-09-02T00:44:57;1.50;;;0.52;;
58928;SDS011;44713;53.378;10.022;2022-09-02T00:47:23;1.13;;;0.60;;
58928;SDS011;44713;53.378;10.022;2022-09-02T00:49:49;0.93;;;0.52;;
58928;SDS011;44713;53.378;10.022;2022-09-02T00:52:18;2.25;;;0.63;;
58928;SDS011;44713;53.378;10.022;2022-09-02T00:54:50;0.60;;;0.60;;
58928;SDS011;44713;53.378;10.022;2022-09-02T00:57:18;0.60;;;0.60;;
58928;SDS011;44713;53.378;10.022;2022-09-02T00:59:56;0.73;;;0.60;;
58928;SDS011;44713;53.378;10.022;2022-09-02T01:02:36;0.70;;;0.60;;
58928;SDS011;44713;53.378;10.022;2022-09-02T01:05:04;0.82;;;0.70;;
58928;SDS011;44713;53.378;10.022;2022-09-02T01:07:33;2.30;;;0.88;;
58928;SDS011;44713;53.378;10.022;2022-09-02T01:10:03;0.60;;;0.60;;
58928;SDS011;44713;53.378;10.022;2022-09-02T01:12:35;1.02;;;0.60;;
58928;SDS011;44713;53.378;10.022;2022-09-02T01:15:02;0.88;;;0.45;;
58928;SDS011;44713;53.378;10.022;2022-09-02T01:17:30;1.40;;;0.70;;
58928;SDS011;44713;53.378;10.022;2022-09-02T01:20:00;1.58;;;0.68;;
58928;SDS011;44713;53.378;10.022;2022-09-02T01:22:32;0.90;;;0.60;;
58928;SDS011;44713;53.378;10.022;2022-09-02T01:25:05;0.80;;;0.50;;
58928;SDS011;44713;53.378;10.022;2022-09-02T01:27:38;1.63;;;0.57;;
58928;SDS011;44713;53.378;10.022;2022-09-02T01:30:04;0.80;;;0.65;;
58928;SDS011;44713;53.378;10.022;2022-09-02T01:32:32;0.90;;;0.70;;
58928;SDS011;44713;53.378;10.022;2022-09-02T01:34:57;2.90;;;1.00;;
58928;SDS011;44713;53.378;10.022;2022-09-02T01:37:24;1.05;;;0.52;;
58928;SDS011;44713;53.378;10.022;2022-09-02T01:39:50;0.90;;;0.50;;
58928;SDS011;44713;53.378;10.022;2022-09-02T01:42:16;1.52;;;0.50;;
58928;SDS011;44713;53.378;10.022;2022-09-02T01:44:42;2.40;;;0.60;;
58928;SDS011;44713;53.378;10.022;2022-09-02T01:47:13;0.40;;;0.40;;
58928;SDS011;44713;53.378;10.022;2022-09-02T01:49:40;2.25;;;0.60;;
58928;SDS011;44713;53.378;10.022;2022-09-02T01:52:06;0.70;;;0.60;;
58928;SDS011;44713;53.378;10.022;2022-09-02T01:54:32;1.83;;;0.60;;
58928;SDS011;44713;53.378;10.022;2022-09-02T01:56:58;0.77;;;0.50;;
58928;SDS011;44713;53.378;10.022;2022-09-02T01:59:24;0.43;;;0.40;;
58928;SDS011;44713;53.378;10.022;2022-09-02T02:01:50;2.45;;;0.57;;
58928;SDS011;44713;53.378;10.022;2022-09-02T02:04:18;0.60;;;0.60;;
58928;SDS011;44713;53.378;10.022;2022-09-02T02:06:45;0.75;;;0.70;;
58928;SDS011;44713;53.378;10.022;2022-09-02T02:09:14;1.25;;;0.82;;
58928;SDS011;44713;53.378;10.022;2022-09-02T02:11:41;1.02;;;0.65;;
58928;SDS011;44713;53.378;10.022;2022-09-02T02:14:07;2.35;;;0.80;;
58928;SDS011;44713;53.378;10.022;2022-09-02T02:16:34;1.00;;;0.70;;
58928;SDS011;44713;53.378;10.022;2022-09-02T02:18:59;2.95;;;0.60;;
58928;SDS011;44713;53.378;10.022;2022-09-02T02:21:25;1.75;;;0.70;;
58928;SDS011;44713;53.378;10.022;2022-09-02T02:23:51;0.85;;;0.60;;
58928;SDS011;44713;53.378;10.022;2022-09-02T02:26:17;1.17;;;0.50;;
58928;SDS011;44713;53.378;10.022;2022-09-02T02:28:43;0.60;;;0.60;;
58928;SDS011;44713;53.378;10.022;2022-09-02T02:31:09;1.13;;;0.70;;
58928;SDS011;44713;53.378;10.022;2022-09-02T02:33:35;0.70;;;0.70;;
58928;SDS011;44713;53.378;10.022;2022-09-02T02:36:04;0.80;;;0.68;;
58928;SDS011;44713;53.378;10.022;2022-09-02T02:38:35;1.10;;;0.93;;
58928;SDS011;44713;53.378;10.022;2022-09-02T02:41:02;1.13;;;0.93;;
58928;SDS011;44713;53.378;10.022;2022-09-02T02:43:29;1.00;;;0.88;;
58928;SDS011;44713;53.378;10.022;2022-09-02T02:45:54;1.17;;;0.80;;
58928;SDS011;44713;53.378;10.022;2022-09-02T02:48:20;1.00;;;0.80;;
58928;SDS011;44713;53.378;10.022;2022-09-02T02:50:46;0.50;;;0.50;;
58928;SDS011;44713;53.378;10.022;2022-09-02T02:53:11;0.90;;;0.70;;
58928;SDS011;44713;53.378;10.022;2022-09-02T02:55:37;0.82;;;0.82;;
58928;SDS011;44713;53.378;10.022;2022-09-02T02:58:03;1.35;;;0.70;;
58928;SDS011;44713;53.378;10.022;2022-09-02T03:00:30;1.65;;;1.00;;
58928;SDS011;44713;53.378;10.022;2022-09-02T03:02:58;0.80;;;0.80;;
58928;SDS011;44713;53.378;10.022;2022-09-02T03:05:34;1.33;;;0.70;;
58928;SDS011;44713;53.378;10.022;2022-09-02T03:08:06;2.50;;;1.08;;
58928;SDS011;44713;53.378;10.022;2022-09-02T03:10:34;1.35;;;0.70;;
58928;SDS011;44713;53.378;10.022;2022-09-02T03:13:01;1.65;;;0.90;;
58928;SDS011;44713;53.378;10.022;2022-09-02T03:15:26;1.50;;;0.90;;
58928;SDS011;44713;53.378;10.022;2022-09-02T03:17:54;1.65;;;1.27;;
58928;SDS011;44713;53.378;10.022;2022-09-02T03:20:20;1.80;;;0.80;;
58928;SDS011;44713;53.378;10.022;2022-09-02T03:22:52;1.52;;;0.77;;
58928;SDS011;44713;53.378;10.022;2022-09-02T03:25:19;1.65;;;0.70;;
58928;SDS011;44713;53.378;10.022;2022-09-02T03:27:46;1.92;;;0.70;;
58928;SDS011;44713;53.378;10.022;2022-09-02T03:30:14;1.00;;;0.77;;
58928;SDS011;44713;53.378;10.022;2022-09-02T03:32:43;1.48;;;0.60;;
58928;SDS011;44713;53.378;10.022;2022-09-02T03:35:11;3.08;;;0.75;;
58928;SDS011;44713;53.378;10.022;2022-09-02T03:37:39;1.40;;;0.52;;
58928;SDS011;44713;53.378;10.022;2022-09-02T03:40:07;1.63;;;0.70;;
58928;SDS011;44713;53.378;10.022;2022-09-02T03:42:36;1.30;;;0.88;;
58928;SDS011;44713;53.378;10.022;2022-09-02T03:45:03;2.28;;;1.00;;
58928;SDS011;44713;53.378;10.022;2022-09-02T03:47:30;0.77;;;0.57;;
58928;SDS011;44713;53.378;10.022;2022-09-02T03:49:56;1.00;;;0.80;;
58928;SDS011;44713;53.378;10.022;2022-09-02T03:52:22;3.13;;;0.70;;
58928;SDS011;44713;53.378;10.022;2022-09-02T03:54:48;1.10;;;0.77;;
58928;SDS011;44713;53.378;10.022;2022-09-02T03:57:14;1.85;;;0.88;;
58928;SDS011;44713;53.378;10.022;2022-09-02T03:59:39;0.73;;;0.60;;
58928;SDS011;44713;53.378;10.022;2022-09-02T04:02:05;0.80;;;0.80;;
58928;SDS011;44713;53.378;10.022;2022-09-02T04:04:31;1.00;;;0.80;;
58928;SDS011;44713;53.378;10.022;2022-09-02T04:06:57;1.17;;;0.85;;
58928;SDS011;44713;53.378;10.022;2022-09-02T04:09:24;1.00;;;0.73;;
58928;SDS011;44713;53.378;10.022;2022-09-02T04:11:49;0.93;;;0.77;;
58928;SDS011;44713;53.378;10.022;2022-09-02T04:14:15;1.75;;;0.80;;
58928;SDS011;44713;53.378;10.022;2022-09-02T04:16:41;2.03;;;0.70;;
58928;SDS011;44713;53.378;10.022;2022-09-02T04:19:07;0.88;;;0.70;;
58928;SDS011;44713;53.378;10.022;2022-09-02T04:21:38;1.13;;;0.82;;
58928;SDS011;44713;53.378;10.022;2022-09-02T04:24:05;0.95;;;0.75;;
58928;SDS011;44713;53.378;10.022;2022-09-02T04:26:34;0.93;;;0.82;;
58928;SDS011;44713;53.378;10.022;2022-09-02T04:29:01;2.33;;;0.90;;
58928;SDS011;44713;53.378;10.022;2022-09-02T04:31:27;0.98;;;0.80;;
58928;SDS011;44713;53.378;10.022;2022-09-02T04:33:55;1.75;;;0.73;;
58928;SDS011;44713;53.378;10.022;2022-09-02T04:36:22;1.23;;;0.75;;
58928;SDS011;44713;53.378;10.022;2022-09-02T04:38:50;1.25;;;0.80;;
58928;SDS011;44713;53.378;10.022;2022-09-02T04:41:20;4.22;;;0.90;;
58928;SDS011;44713;53.378;10.022;2022-09-02T04:43:48;1.20;;;0.80;;
58928;SDS011;44713;53.378;10.022;2022-09-02T04:46:15;0.70;;;0.70;;
58928;SDS011;44713;53.378;10.022;2022-09-02T04:48:42;2.22;;;0.55;;
58928;SDS011;44713;53.378;10.022;2022-09-02T04:51:10;0.82;;;0.60;;
58928;SDS011;44713;53.378;10.022;2022-09-02T04:53:38;1.15;;;0.80;;
58928;SDS011;44713;53.378;10.022;2022-09-02T04:56:05;1.63;;;0.80;;
58928;SDS011;44713;53.378;10.022;2022-09-02T04:58:34;0.98;;;0.80;;
58928;SDS011;44713;53.378;10.022;2022-09-02T05:01:08;1.23;;;0.85;;
58928;SDS011;44713;53.378;10.022;2022-09-02T05:03:35;1.58;;;0.80;;
58928;SDS011;44713;53.378;10.022;2022-09-02T05:06:05;1.20;;;0.98;;
58928;SDS011;44713;53.378;10.022;2022-09-02T05:08:36;1.25;;;1.10;;
58928;SDS011;44713;53.378;10.022;2022-09-02T05:11:06;1.00;;;0.90;;
58928;SDS011;44713;53.378;10.022;2022-09-02T05:13:33;1.17;;;0.88;;
58928;SDS011;44713;53.378;10.022;2022-09-02T05:15:59;1.40;;;1.05;;
58928;SDS011;44713;53.378;10.022;2022-09-02T05:18:25;0.65;;;0.65;;
58928;SDS011;44713;53.378;10.022;2022-09-02T05:20:51;1.77;;;0.80;;
58928;SDS011;44713;53.378;10.022;2022-09-02T05:23:17;1.55;;;1.10;;
58928;SDS011;44713;53.378;10.022;2022-09-02T05:25:44;2.25;;;1.10;;
58928;SDS011;44713;53.378;10.022;2022-09-02T05:28:10;1.77;;;1.15;;
58928;SDS011;44713;53.378;10.022;2022-09-02T05:30:36;5.72;;;1.35;;
58928;SDS011;44713;53.378;10.022;2022-09-02T05:33:02;2.72;;;0.93;;
58928;SDS011;44713;53.378;10.022;2022-09-02T05:35:30;1.88;;;1.42;;
58928;SDS011;44713;53.378;10.022;2022-09-02T05:37:56;3.42;;;1.80;;
58928;SDS011;44713;53.378;10.022;2022-09-02T05:40:22;2.22;;;2.03;;
58928;SDS011;44713;53.378;10.022;2022-09-02T05:42:49;2.22;;;1.77;;
58928;SDS011;44713;53.378;10.022;2022-09-02T05:45:15;3.55;;;1.88;;
58928;SDS011;44713;53.378;10.022;2022-09-02T05:47:41;3.33;;;1.83;;
58928;SDS011;44713;53.378;10.022;2022-09-02T05:50:07;3.00;;;1.85;;
58928;SDS011;44713;53.378;10.022;2022-09-02T05:52:33;6.15;;;2.40;;
58928;SDS011;44713;53.378;10.022;2022-09-02T05:54:59;2.55;;;1.90;;
58928;SDS011;44713;53.378;10.022;2022-09-02T05:57:25;2.70;;;2.08;;
58928;SDS011;44713;53.378;10.022;2022-09-02T06:00:04;2.00;;;1.77;;
58928;SDS011;44713;53.378;10.022;2022-09-02T06:02:40;2.33;;;1.88;;
58928;SDS011;44713;53.378;10.022;2022-09-02T06:05:08;4.78;;;1.70;;
58928;SDS011;44713;53.378;10.022;2022-09-02T06:07:36;1.95;;;1.70;;
58928;SDS011;44713;53.378;10.022;2022-09-02T06:10:03;2.92;;;1.83;;
58928;SDS011;44713;53.378;10.022;2022-09-02T06:12:30;3.75;;;1.90;;
58928;SDS011;44713;53.378;10.022;2022-09-02T06:14:57;9.77;;;2.10;;
58928;SDS011;44713;53.378;10.022;2022-09-02T06:17:24;3.83;;;1.95;;
58928;SDS011;44713;53.378;10.022;2022-09-02T06:19:51;2.78;;;1.52;;
58928;SDS011;44713;53.378;10.022;2022-09-02T06:22:16;2.13;;;1.77;;
58928;SDS011;44713;53.378;10.022;2022-09-02T06:24:43;2.67;;;1.58;;
58928;SDS011;44713;53.378;10.022;2022-09-02T06:27:15;3.35;;;1.90;;
58928;SDS011;44713;53.378;10.022;2022-09-02T06:29:44;2.75;;;1.60;;
58928;SDS011;44713;53.378;10.022;2022-09-02T06:32:10;2.78;;;1.75;;
58928;SDS011;44713;53.378;10.022;2022-09-02T06:34:35;6.63;;;2.78;;
58928;SDS011;44713;53.378;10.022;2022-09-02T06:37:03;2.42;;;1.60;;
58928;SDS011;44713;53.378;10.022;2022-09-02T06:39:31;3.25;;;1.58;;
58928;SDS011;44713;53.378;10.022;2022-09-02T06:41:57;1.55;;;1.30;;
58928;SDS011;44713;53.378;10.022;2022-09-02T06:44:25;1.95;;;1.38;;
58928;SDS011;44713;53.378;10.022;2022-09-02T06:46:52;3.75;;;1.52;;
58928;SDS011;44713;53.378;10.022;2022-09-02T06:49:21;3.20;;;1.50;;
58928;SDS011;44713;53.378;10.022;2022-09-02T06:51:50;1.52;;;1.40;;
58928;SDS011;44713;53.378;10.022;2022-09-02T06:54:19;2.72;;;1.40;;
58928;SDS011;44713;53.378;10.022;2022-09-02T06:56:49;3.47;;;1.60;;
58928;SDS011;44713;53.378;10.022;2022-09-02T06:59:19;1.40;;;1.30;;
58928;SDS011;44713;53.378;10.022;2022-09-02T07:01:50;5.07;;;1.40;;
58928;SDS011;44713;53.378;10.022;2022-09-02T07:04:18;3.38;;;1.50;;
58928;SDS011;44713;53.378;10.022;2022-09-02T07:07:05;1.98;;;1.17;;
58928;SDS011;44713;53.378;10.022;2022-09-02T07:09:36;1.90;;;1.23;;
58928;SDS011;44713;53.378;10.022;2022-09-02T07:12:08;1.27;;;1.17;;
58928;SDS011;44713;53.378;10.022;2022-09-02T07:14:39;3.40;;;1.10;;
58928;SDS011;44713;53.378;10.022;2022-09-02T07:17:10;1.98;;;1.73;;
58928;SDS011;44713;53.378;10.022;2022-09-02T07:19:50;1.83;;;1.33;;
58928;SDS011;44713;53.378;10.022;2022-09-02T07:22:16;1.75;;;1.38;;
58928;SDS011;44713;53.378;10.022;2022-09-02T07:24:42;3.53;;;1.00;;
58928;SDS011;44713;53.378;10.022;2022-09-02T07:27:09;2.15;;;1.08;;
58928;SDS011;44713;53.378;10.022;2022-09-02T07:29:35;6.40;;;1.45;;
58928;SDS011;44713;53.378;10.022;2022-09-02T07:32:01;1.50;;;1.13;;
58928;SDS011;44713;53.378;10.022;2022-09-02T07:34:27;2.00;;;0.88;;
58928;SDS011;44713;53.378;10.022;2022-09-02T07:36:53;2.95;;;1.10;;
58928;SDS011;44713;53.378;10.022;2022-09-02T07:39:20;2.35;;;0.80;;
58928;SDS011;44713;53.378;10.022;2022-09-02T07:41:48;1.45;;;0.85;;
58928;SDS011;44713;53.378;10.022;2022-09-02T07:44:17;3.88;;;0.90;;
58928;SDS011;44713;53.378;10.022;2022-09-02T07:46:46;2.15;;;1.13;;
58928;SDS011;44713;53.378;10.022;2022-09-02T07:49:13;1.77;;;0.75;;
58928;SDS011;44713;53.378;10.022;2022-09-02T07:51:41;1.65;;;0.85;;
58928;SDS011;44713;53.378;10.022;2022-09-02T07:54:08;0.70;;;0.70;;
58928;SDS011;44713;53.378;10.022;2022-09-02T07:56:36;3.78;;;0.70;;
58928;SDS011;44713;53.378;10.022;2022-09-02T07:59:02;1.33;;;0.85;;
58928;SDS011;44713;53.378;10.022;2022-09-02T08:01:28;3.05;;;0.80;;
58928;SDS011;44713;53.378;10.022;2022-09-02T08:03:55;1.00;;;0.70;;
58928;SDS011;44713;53.378;10.022;2022-09-02T08:06:25;0.68;;;0.68;;
58928;SDS011;44713;53.378;10.022;2022-09-02T08:08:53;1.83;;;1.23;;
58928;SDS011;44713;53.378;10.022;2022-09-02T08:11:19;3.40;;;0.98;;
58928;SDS011;44713;53.378;10.022;2022-09-02T08:13:45;2.92;;;0.80;;
58928;SDS011;44713;53.378;10.022;2022-09-02T08:16:11;3.65;;;1.00;;
58928;SDS011;44713;53.378;10.022;2022-09-02T08:18:37;3.83;;;0.70;;
58928;SDS011;44713;53.378;10.022;2022-09-02T08:21:03;1.00;;;0.90;;
58928;SDS011;44713;53.378;10.022;2022-09-02T08:23:29;4.57;;;0.75;;
58928;SDS011;44713;53.378;10.022;2022-09-02T08:25:54;1.05;;;0.60;;
58928;SDS011;44713;53.378;10.022;2022-09-02T08:28:22;1.38;;;0.82;;
58928;SDS011;44713;53.378;10.022;2022-09-02T08:30:47;2.50;;;0.70;;
58928;SDS011;44713;53.378;10.022;2022-09-02T08:33:13;1.98;;;0.65;;
58928;SDS011;44713;53.378;10.022;2022-09-02T08:35:38;2.72;;;0.90;;
58928;SDS011;44713;53.378;10.022;2022-09-02T08:38:04;1.02;;;0.63;;
58928;SDS011;44713;53.378;10.022;2022-09-02T08:40:31;1.20;;;0.70;;
58928;SDS011;44713;53.378;10.022;2022-09-02T08:43:01;3.17;;;0.85;;
58928;SDS011;44713;53.378;10.022;2022-09-02T08:45:29;2.33;;;0.60;;
58928;SDS011;44713;53.378;10.022;2022-09-02T08:48:09;3.80;;;0.88;;
58928;SDS011;44713;53.378;10.022;2022-09-02T08:50:44;0.60;;;0.60;;
58928;SDS011;44713;53.378;10.022;2022-09-02T08:55:53;1.88;;;0.40;;
58928;SDS011;44713;53.378;10.022;2022-09-02T08:58:21;3.25;;;0.82;;
58928;SDS011;44713;53.378;10.022;2022-09-02T09:00:50;3.13;;;0.60;;
58928;SDS011;44713;53.378;10.022;2022-09-02T09:06:29;0.82;;;0.43;;
58928;SDS011;44713;53.378;10.022;2022-09-02T09:22:31;2.20;;;0.52;;
58928;SDS011;44713;53.378;10.022;2022-09-02T09:25:01;2.33;;;0.50;;
58928;SDS011;44713;53.378;10.022;2022-09-02T09:27:31;1.42;;;0.50;;
58928;SDS011;44713;53.378;10.022;2022-09-02T09:29:56;4.13;;;0.60;;
58928;SDS011;44713;53.378;10.022;2022-09-02T09:34:53;2.58;;;0.57;;
58928;SDS011;44713;53.378;10.022;2022-09-02T09:40:00;1.27;;;0.50;;
58928;SDS011;44713;53.378;10.022;2022-09-02T09:42:30;2.30;;;0.57;;
58928;SDS011;44713;53.378;10.022;2022-09-02T09:45:03;1.00;;;0.50;;
58928;SDS011;44713;53.378;10.022;2022-09-02T09:50:44;0.80;;;0.50;;
58928;SDS011;44713;53.378;10.022;2022-09-02T09:53:16;0.80;;;0.50;;
58928;SDS011;44713;53.378;10.022;2022-09-02T09:55:49;2.15;;;0.57;;
58928;SDS011;44713;53.378;10.022;2022-09-02T09:58:22;1.42;;;0.40;;
58928;SDS011;44713;53.378;10.022;2022-09-02T10:00:53;1.25;;;0.50;;
58928;SDS011;44713;53.378;10.022;2022-09-02T10:03:27;2.47;;;0.50;;
58928;SDS011;44713;53.378;10.022;2022-09-02T10:05:58;2.80;;;0.50;;
58928;SDS011;44713;53.378;10.022;2022-09-02T10:08:48;0.90;;;0.60;;
58928;SDS011;44713;53.378;10.022;2022-09-02T10:11:20;2.50;;;0.43;;
58928;SDS011;44713;53.378;10.022;2022-09-02T10:13:50;1.33;;;0.57;;
58928;SDS011;44713;53.378;10.022;2022-09-02T10:19:32;2.15;;;0.50;;
58928;SDS011;44713;53.378;10.022;2022-09-02T10:27:19;0.52;;;0.40;;
58928;SDS011;44713;53.378;10.022;2022-09-02T10:30:13;1.05;;;0.40;;
58928;SDS011;44713;53.378;10.022;2022-09-02T10:32:57;5.97;;;0.70;;
58928;SDS011;44713;53.378;10.022;2022-09-02T10:35:42;1.70;;;0.47;;
58928;SDS011;44713;53.378;10.022;2022-09-02T10:38:32;2.33;;;0.50;;
58928;SDS011;44713;53.378;10.022;2022-09-02T10:46:54;1.70;;;0.40;;
58928;SDS011;44713;53.378;10.022;2022-09-02T10:57:23;1.88;;;0.57;;
58928;SDS011;44713;53.378;10.022;2022-09-02T11:02:41;2.05;;;0.38;;
58928;SDS011;44713;53.378;10.022;2022-09-02T11:05:15;1.55;;;0.50;;
58928;SDS011;44713;53.378;10.022;2022-09-02T11:07:51;1.05;;;0.60;;
58928;SDS011;44713;53.378;10.022;2022-09-02T11:10:27;2.83;;;0.45;;
58928;SDS011;44713;53.378;10.022;2022-09-02T11:12:59;0.95;;;0.47;;
58928;SDS011;44713;53.378;10.022;2022-09-02T11:15:38;1.15;;;0.50;;
58928;SDS011;44713;53.378;10.022;2022-09-02T11:18:35;0.95;;;0.40;;
58928;SDS011;44713;53.378;10.022;2022-09-02T11:24:03;1.40;;;0.57;;
58928;SDS011;44713;53.378;10.022;2022-09-02T11:26:36;1.02;;;0.52;;
58928;SDS011;44713;53.378;10.022;2022-09-02T11:29:26;1.73;;;0.60;;
58928;SDS011;44713;53.378;10.022;2022-09-02T11:32:17;4.47;;;0.63;;
58928;SDS011;44713;53.378;10.022;2022-09-02T11:34:50;1.17;;;0.60;;
58928;SDS011;44713;53.378;10.022;2022-09-02T11:40:35;1.63;;;0.60;;
58928;SDS011;44713;53.378;10.022;2022-09-02T11:45:51;2.40;;;0.52;;
58928;SDS011;44713;53.378;10.022;2022-09-02T11:54:43;0.73;;;0.43;;
58928;SDS011;44713;53.378;10.022;2022-09-02T11:57:13;0.98;;;0.52;;
58928;SDS011;44713;53.378;10.022;2022-09-02T12:02:29;1.38;;;0.43;;
58928;SDS011;44713;53.378;10.022;2022-09-02T12:07:46;1.02;;;0.60;;
58928;SDS011;44713;53.378;10.022;2022-09-02T12:13:08;1.67;;;0.90;;
58928;SDS011;44713;53.378;10.022;2022-09-02T12:18:37;2.30;;;0.50;;
58928;SDS011;44713;53.378;10.022;2022-09-02T12:21:07;0.88;;;0.40;;
58928;SDS011;44713;53.378;10.022;2022-09-02T12:26:22;2.42;;;0.60;;
58928;SDS011;44713;53.378;10.022;2022-09-02T12:28:48;2.35;;;0.70;;
58928;SDS011;44713;53.378;10.022;2022-09-02T12:31:15;4.90;;;0.70;;
58928;SDS011;44713;53.378;10.022;2022-09-02T12:33:48;2.13;;;0.55;;
58928;SDS011;44713;53.378;10.022;2022-09-02T12:36:58;4.55;;;0.45;;
58928;SDS011;44713;53.378;10.022;2022-09-02T12:50:03;1.13;;;0.68;;
58928;SDS011;44713;53.378;10.022;2022-09-02T12:57:39;0.80;;;0.40;;
58928;SDS011;44713;53.378;10.022;2022-09-02T13:00:11;0.77;;;0.30;;
58928;SDS011;44713;53.378;10.022;2022-09-02T13:06:23;1.20;;;0.45;;
58928;SDS011;44713;53.378;10.022;2022-09-02T13:08:51;0.85;;;0.50;;
58928;SDS011;44713;53.378;10.022;2022-09-02T13:14:51;1.73;;;0.50;;
58928;SDS011;44713;53.378;10.022;2022-09-02T13:17:46;3.03;;;0.50;;
58928;SDS011;44713;53.378;10.022;2022-09-02T13:21:03;2.88;;;0.55;;
58928;SDS011;44713;53.378;10.022;2022-09-02T13:31:59;1.55;;;0.45;;
58928;SDS011;44713;53.378;10.022;2022-09-02T13:34:39;2.78;;;0.68;;
58928;SDS011;44713;53.378;10.022;2022-09-02T13:37:24;1.33;;;0.60;;
58928;SDS011;44713;53.378;10.022;2022-09-02T13:39:52;0.80;;;0.57;;
58928;SDS011;44713;53.378;10.022;2022-09-02T13:42:19;0.90;;;0.50;;
58928;SDS011;44713;53.378;10.022;2022-09-02T13:44:47;1.45;;;0.60;;
58928;SDS011;44713;53.378;10.022;2022-09-02T13:47:14;1.85;;;0.60;;
58928;SDS011;44713;53.378;10.022;2022-09-02T13:49:43;3.03;;;0.50;;
58928;SDS011;44713;53.378;10.022;2022-09-02T13:52:11;4.90;;;0.77;;
58928;SDS011;44713;53.378;10.022;2022-09-02T13:54:42;3.63;;;0.50;;
58928;SDS011;44713;53.378;10.022;2022-09-02T13:57:12;2.42;;;0.47;;
58928;SDS011;44713;53.378;10.022;2022-09-02T13:59:48;0.90;;;0.40;;
58928;SDS011;44713;53.378;10.022;2022-09-02T14:02:23;2.70;;;0.50;;
58928;SDS011;44713;53.378;10.022;2022-09-02T14:05:19;5.13;;;0.65;;
58928;SDS011;44713;53.378;10.022;2022-09-02T14:07:49;1.60;;;0.70;;
58928;SDS011;44713;53.378;10.022;2022-09-02T14:10:18;1.17;;;0.60;;
58928;SDS011;44713;53.378;10.022;2022-09-02T14:12:46;0.90;;;0.40;;
58928;SDS011;44713;53.378;10.022;2022-09-02T14:15:13;1.10;;;0.50;;
58928;SDS011;44713;53.378;10.022;2022-09-02T14:17:40;0.77;;;0.50;;
58928;SDS011;44713;53.378;10.022;2022-09-02T14:22:50;4.70;;;0.85;;
58928;SDS011;44713;53.378;10.022;2022-09-02T14:25:20;1.33;;;0.50;;
58928;SDS011;44713;53.378;10.022;2022-09-02T14:27:50;2.15;;;0.60;;
58928;SDS011;44713;53.378;10.022;2022-09-02T14:30:24;1.67;;;0.75;;
58928;SDS011;44713;53.378;10.022;2022-09-02T14:33:17;0.80;;;0.55;;
58928;SDS011;44713;53.378;10.022;2022-09-02T14:43:46;1.80;;;0.50;;
58928;SDS011;44713;53.378;10.022;2022-09-02T14:46:22;3.38;;;0.88;;
58928;SDS011;44713;53.378;10.022;2022-09-02T14:48:58;2.35;;;0.70;;
58928;SDS011;44713;53.378;10.022;2022-09-02T14:51:30;3.45;;;0.63;;
58928;SDS011;44713;53.378;10.022;2022-09-02T14:53:59;1.05;;;0.60;;
58928;SDS011;44713;53.378;10.022;2022-09-02T14:59:09;2.45;;;0.60;;
58928;SDS011;44713;53.378;10.022;2022-09-02T15:01:39;1.85;;;0.52;;
58928;SDS011;44713;53.378;10.022;2022-09-02T15:04:06;2.70;;;0.57;;
58928;SDS011;44713;53.378;10.022;2022-09-02T15:06:32;1.45;;;0.50;;
58928;SDS011;44713;53.378;10.022;2022-09-02T15:08:58;6.10;;;0.80;;
58928;SDS011;44713;53.378;10.022;2022-09-02T15:11:23;4.60;;;0.80;;
58928;SDS011;44713;53.378;10.022;2022-09-02T15:13:49;0.77;;;0.60;;
58928;SDS011;44713;53.378;10.022;2022-09-02T15:16:14;1.88;;;0.70;;
58928;SDS011;44713;53.378;10.022;2022-09-02T15:18:40;1.35;;;0.50;;
58928;SDS011;44713;53.378;10.022;2022-09-02T15:21:05;2.25;;;0.60;;
58928;SDS011;44713;53.378;10.022;2022-09-02T15:23:30;3.28;;;0.60;;
58928;SDS011;44713;53.378;10.022;2022-09-02T15:25:56;4.20;;;0.50;;
58928;SDS011;44713;53.378;10.022;2022-09-02T15:28:21;2.65;;;0.77;;
58928;SDS011;44713;53.378;10.022;2022-09-02T15:30:46;2.08;;;0.65;;
58928;SDS011;44713;53.378;10.022;2022-09-02T15:33:12;0.63;;;0.60;;
58928;SDS011;44713;53.378;10.022;2022-09-02T15:35:37;3.35;;;0.70;;
58928;SDS011;44713;53.378;10.022;2022-09-02T15:38:03;2.20;;;0.63;;
58928;SDS011;44713;53.378;10.022;2022-09-02T15:40:29;5.55;;;0.90;;
58928;SDS011;44713;53.378;10.022;2022-09-02T15:42:55;1.67;;;0.90;;
58928;SDS011;44713;53.378;10.022;2022-09-02T15:45:21;2.33;;;0.60;;
58928;SDS011;44713;53.378;10.022;2022-09-02T15:47:47;10.10;;;2.00;;
58928;SDS011;44713;53.378;10.022;2022-09-02T15:50:12;5.85;;;0.90;;
58928;SDS011;44713;53.378;10.022;2022-09-02T15:52:37;4.78;;;1.20;;
58928;SDS011;44713;53.378;10.022;2022-09-02T15:55:03;2.67;;;0.60;;
58928;SDS011;44713;53.378;10.022;2022-09-02T15:57:29;7.18;;;1.02;;
58928;SDS011;44713;53.378;10.022;2022-09-02T15:59:54;2.70;;;0.60;;
58928;SDS011;44713;53.378;10.022;2022-09-02T16:02:20;4.47;;;0.65;;
58928;SDS011;44713;53.378;10.022;2022-09-02T16:04:45;1.25;;;0.90;;
58928;SDS011;44713;53.378;10.022;2022-09-02T16:07:11;1.90;;;0.90;;
58928;SDS011;44713;53.378;10.022;2022-09-02T16:09:36;0.90;;;0.60;;
58928;SDS011;44713;53.378;10.022;2022-09-02T16:12:02;3.65;;;1.35;;
58928;SDS011;44713;53.378;10.022;2022-09-02T16:14:27;4.88;;;0.98;;
58928;SDS011;44713;53.378;10.022;2022-09-02T16:16:53;1.60;;;0.82;;
58928;SDS011;44713;53.378;10.022;2022-09-02T16:19:20;2.00;;;0.75;;
58928;SDS011;44713;53.378;10.022;2022-09-02T16:21:47;2.42;;;0.75;;
58928;SDS011;44713;53.378;10.022;2022-09-02T16:24:13;2.05;;;0.65;;
58928;SDS011;44713;53.378;10.022;2022-09-02T16:26:39;1.13;;;0.50;;
58928;SDS011;44713;53.378;10.022;2022-09-02T16:29:09;3.22;;;0.80;;
58928;SDS011;44713;53.378;10.022;2022-09-02T16:31:41;3.50;;;0.63;;
58928;SDS011;44713;53.378;10.022;2022-09-02T16:34:11;2.30;;;0.60;;
58928;SDS011;44713;53.378;10.022;2022-09-02T16:36:41;2.88;;;0.60;;
58928;SDS011;44713;53.378;10.022;2022-09-02T16:39:08;2.33;;;0.47;;
58928;SDS011;44713;53.378;10.022;2022-09-02T16:41:37;3.78;;;1.30;;
58928;SDS011;44713;53.378;10.022;2022-09-02T16:44:24;3.13;;;0.70;;
58928;SDS011;44713;53.378;10.022;2022-09-02T16:46:50;4.28;;;0.80;;
58928;SDS011;44713;53.378;10.022;2022-09-02T16:49:17;1.48;;;0.65;;
58928;SDS011;44713;53.378;10.022;2022-09-02T16:51:44;1.73;;;0.45;;